createdAt,value
2022-08-19T00:08:23.380Z,19.80
2022-08-19T00:15:30.107Z,19.70
2022-08-19T00:18:41.958Z,19.70
2022-08-19T00:22:19.261Z,19.70
2022-08-19T00:25:39.635Z,19.60
2022-08-19T00:39:00.669Z,19.60
2022-08-19T00:42:40.312Z,19.60
2022-08-19T00:49:41.075Z,19.60
2022-08-19T00:53:03.853Z,19.60
2022-08-19T01:08:13.949Z,19.50
2022-08-19T01:11:48.523Z,19.60
2022-08-19T01:17:52.709Z,19.60
2022-08-19T01:21:20.697Z,19.50
2022-08-19T01:24:19.087Z,19.50
2022-08-19T01:27:26.380Z,19.50
2022-08-19T01:34:30.012Z,19.50
2022-08-19T01:40:44.299Z,19.40
2022-08-19T01:44:17.761Z,19.40
2022-08-19T01:47:29.316Z,19.40
2022-08-19T01:51:06.101Z,19.40
2022-08-19T01:54:27.834Z,19.40
2022-08-19T02:04:26.452Z,19.30
2022-08-19T02:07:14.005Z,19.30
2022-08-19T02:10:16.638Z,19.40
2022-08-19T02:13:04.308Z,19.40
2022-08-19T02:15:52.083Z,19.40
2022-08-19T02:18:39.538Z,19.30
2022-08-19T02:21:27.486Z,19.20
2022-08-19T02:24:14.730Z,19.30
2022-08-19T02:34:34.302Z,19.30
2022-08-19T02:37:54.205Z,19.30
2022-08-19T02:41:09.877Z,19.30
2022-08-19T02:44:29.689Z,19.30
2022-08-19T02:47:24.619Z,19.20
2022-08-19T02:54:04.138Z,19.30
2022-08-19T03:00:26.643Z,19.20
2022-08-19T03:03:25.284Z,19.20
2022-08-19T03:07:00.808Z,19.20
2022-08-19T03:10:10.168Z,19.20
2022-08-19T03:28:26.840Z,18.90
2022-08-19T03:32:04.861Z,18.90
2022-08-19T03:36:02.619Z,18.90
2022-08-19T03:42:48.660Z,18.80
2022-08-19T03:46:51.200Z,18.70
2022-08-19T03:49:59.729Z,18.80
2022-08-19T03:53:15.512Z,18.70
2022-08-19T03:56:05.071Z,18.80
2022-08-19T03:59:02.396Z,18.90
2022-08-19T04:06:39.882Z,18.90
2022-08-19T04:10:21.570Z,18.90
2022-08-19T04:13:21.493Z,18.80
2022-08-19T04:20:01.248Z,18.70
2022-08-19T04:27:31.448Z,18.80
2022-08-19T04:34:13.995Z,18.80
2022-08-19T04:37:39.698Z,18.80
2022-08-19T04:40:55.971Z,18.70
2022-08-19T04:44:16.411Z,18.70
2022-08-19T04:47:19.995Z,18.70
2022-08-19T04:54:39.405Z,18.80
2022-08-19T04:58:16.618Z,18.70
2022-08-19T05:01:22.238Z,18.80
2022-08-19T05:08:57.053Z,18.70
2022-08-19T05:11:45.667Z,18.80
2022-08-19T05:14:37.505Z,18.70
2022-08-19T05:17:33.616Z,18.70
2022-08-19T05:20:42.301Z,18.70
2022-08-19T05:23:41.323Z,18.70
2022-08-19T05:26:31.300Z,18.70
2022-08-19T05:29:21.727Z,18.70
2022-08-19T05:32:11.486Z,18.70
2022-08-19T05:34:58.948Z,18.80
2022-08-19T05:37:46.441Z,18.90
2022-08-19T05:40:40.169Z,19.00
2022-08-19T06:05:52.229Z,19.20
2022-08-19T06:09:16.547Z,19.30
2022-08-19T06:12:34.295Z,19.30
2022-08-19T06:15:48.163Z,19.30
2022-08-19T06:23:09.046Z,19.30
2022-08-19T06:29:52.202Z,19.40
2022-08-19T06:33:25.678Z,19.30
2022-08-19T06:36:50.277Z,19.30
2022-08-19T06:43:56.376Z,19.50
2022-08-19T06:46:44.492Z,19.50
2022-08-19T06:50:39.778Z,19.60
2022-08-19T06:53:35.302Z,19.70
2022-08-19T06:56:41.792Z,19.70
2022-08-19T06:59:33.576Z,19.80
2022-08-19T07:02:21.560Z,19.90
2022-08-19T07:05:09.474Z,20.00
2022-08-19T07:08:04.592Z,20.10
2022-08-19T07:10:52.522Z,20.30
2022-08-19T07:13:46.795Z,20.30
2022-08-19T07:16:57.082Z,20.30
2022-08-19T07:19:44.864Z,20.30
2022-08-19T07:22:39.558Z,20.20
2022-08-19T07:25:31.819Z,20.20
2022-08-19T07:28:24.479Z,20.50
2022-08-19T07:31:14.954Z,20.80
2022-08-19T07:34:03.426Z,20.90
2022-08-19T07:36:52.307Z,21.30
2022-08-19T07:39:40.361Z,21.20
2022-08-19T07:42:29.287Z,21.10
2022-08-19T07:45:17.192Z,20.90
2022-08-19T07:48:05.541Z,20.80
2022-08-19T07:51:09.109Z,21.20
2022-08-19T07:53:56.794Z,21.20
2022-08-19T07:56:44.379Z,21.10
2022-08-19T07:59:32.653Z,21.10
2022-08-19T08:02:20.237Z,21.10
2022-08-19T08:05:26.993Z,21.20
2022-08-19T08:08:44.530Z,21.30
2022-08-19T08:12:04.987Z,21.20
2022-08-19T08:14:58.635Z,21.10
2022-08-19T08:25:36.959Z,22.50
2022-08-19T08:28:32.837Z,22.70
2022-08-19T08:31:58.624Z,22.70
2022-08-19T08:41:54.435Z,22.60
2022-08-19T08:45:20.163Z,22.40
2022-08-19T08:48:33.786Z,22.40
2022-08-19T08:51:33.179Z,22.30
2022-08-19T08:57:55.976Z,22.00
2022-08-19T09:00:54.701Z,22.00
2022-08-19T09:03:46.574Z,22.80
2022-08-19T09:06:44.540Z,23.00
2022-08-19T09:09:59.684Z,23.00
2022-08-19T09:12:59.866Z,23.30
2022-08-19T09:16:02.638Z,23.70
2022-08-19T09:18:54.689Z,23.60
2022-08-19T09:21:42.298Z,23.70
2022-08-19T09:24:31.056Z,23.50
2022-08-19T09:27:42.017Z,23.30
2022-08-19T09:30:34.165Z,22.90
2022-08-19T09:33:21.707Z,22.90
2022-08-19T09:36:11.704Z,22.90
2022-08-19T09:38:59.009Z,23.00
2022-08-19T09:41:54.153Z,22.90
2022-08-19T09:46:22.833Z,23.00
2022-08-19T09:49:59.816Z,22.80
2022-08-19T09:56:51.017Z,22.40
2022-08-19T10:07:02.551Z,22.30
2022-08-19T10:10:22.224Z,22.40
2022-08-19T10:16:39.541Z,22.50
2022-08-19T10:19:38.976Z,22.70
2022-08-19T10:22:39.868Z,22.80
2022-08-19T10:25:34.731Z,22.90
2022-08-19T10:28:52.059Z,23.00
2022-08-19T10:32:02.643Z,23.20
2022-08-19T10:35:56.442Z,23.00
2022-08-19T10:39:28.637Z,22.80
2022-08-19T10:43:08.487Z,22.80
2022-08-19T10:46:30.969Z,22.60
2022-08-19T10:50:28.812Z,22.80
2022-08-19T10:53:34.240Z,22.90
2022-08-19T10:56:54.194Z,23.00
2022-08-19T11:03:35.605Z,23.00
2022-08-19T11:17:40.309Z,23.10
2022-08-19T11:21:04.153Z,23.10
2022-08-19T11:24:39.436Z,23.30
2022-08-19T11:27:48.180Z,23.30
2022-08-19T11:34:18.759Z,23.60
2022-08-19T11:37:25.172Z,23.50
2022-08-19T11:40:25.361Z,23.60
2022-08-19T11:43:57.771Z,23.90
2022-08-19T11:54:00.887Z,24.00
2022-08-19T12:03:31.811Z,24.10
2022-08-19T12:06:29.643Z,23.90
2022-08-19T12:09:18.397Z,23.90
2022-08-19T12:12:06.091Z,24.00
2022-08-19T12:14:57.574Z,23.80
2022-08-19T12:17:45.036Z,24.10
2022-08-19T12:20:36.364Z,24.30
2022-08-19T12:23:24.279Z,24.10
2022-08-19T12:26:12.078Z,23.90
2022-08-19T12:29:00.810Z,23.70
2022-08-19T12:31:48.334Z,23.60
2022-08-19T12:34:37.712Z,23.60
2022-08-19T12:37:25.264Z,23.80
2022-08-19T12:40:13.158Z,23.60
2022-08-19T12:43:00.448Z,23.60
2022-08-19T12:45:48.024Z,23.40
2022-08-19T12:48:55.272Z,23.80
2022-08-19T12:51:44.042Z,23.80
2022-08-19T12:54:45.600Z,23.90
2022-08-19T12:57:35.643Z,24.50
2022-08-19T13:00:24.293Z,24.80
2022-08-19T13:03:12.144Z,24.30
2022-08-19T13:06:09.051Z,24.40
2022-08-19T13:08:59.636Z,24.50
2022-08-19T13:11:54.964Z,24.40
2022-08-19T13:14:55.846Z,24.30
2022-08-19T13:17:54.708Z,24.50
2022-08-19T13:20:42.443Z,24.90
2022-08-19T13:23:41.679Z,25.70
2022-08-19T13:26:28.894Z,25.70
2022-08-19T13:29:34.866Z,25.50
2022-08-19T13:32:40.896Z,25.00
2022-08-19T13:39:49.668Z,24.60
2022-08-19T13:43:22.329Z,25.10
2022-08-19T13:50:25.580Z,24.80
2022-08-19T13:56:49.363Z,25.20
2022-08-19T13:59:45.639Z,25.30
2022-08-19T14:02:55.534Z,25.70
2022-08-19T14:06:38.446Z,26.30
2022-08-19T14:09:40.385Z,26.50
2022-08-19T14:13:11.373Z,26.30
2022-08-19T14:16:00.801Z,26.20
2022-08-19T14:19:30.141Z,25.80
2022-08-19T14:22:21.996Z,25.30
2022-08-19T14:26:03.700Z,25.30
2022-08-19T14:39:06.478Z,25.00
2022-08-19T14:42:37.649Z,25.20
2022-08-19T14:45:49.421Z,25.40
2022-08-19T14:48:51.634Z,24.90
2022-08-19T14:55:07.939Z,24.70
2022-08-19T15:02:34.107Z,24.70
2022-08-19T15:09:03.897Z,24.60
2022-08-19T15:13:02.409Z,24.70
2022-08-19T15:23:26.868Z,24.80
2022-08-19T15:26:54.389Z,24.30
2022-08-19T15:36:22.639Z,23.80
2022-08-19T15:39:11.001Z,23.80
2022-08-19T15:42:00.613Z,23.80
2022-08-19T15:44:48.927Z,23.80
2022-08-19T15:47:39.022Z,23.80
2022-08-19T15:50:26.383Z,24.00
2022-08-19T15:53:13.773Z,23.60
2022-08-19T15:56:17.824Z,23.50
2022-08-19T16:02:53.730Z,23.20
2022-08-19T16:06:00.349Z,23.30
2022-08-19T16:15:22.020Z,23.40
2022-08-19T16:18:16.575Z,23.20
2022-08-19T16:21:08.071Z,23.00
2022-08-19T16:23:55.561Z,22.80
2022-08-19T16:26:43.918Z,22.90
2022-08-19T16:29:43.314Z,23.00
2022-08-19T16:32:30.982Z,22.90
2022-08-19T16:35:18.315Z,23.00
2022-08-19T16:42:54.105Z,22.90
2022-08-19T16:49:02.038Z,22.90
2022-08-19T16:52:50.606Z,22.90
2022-08-19T16:59:33.332Z,22.90
2022-08-19T17:02:30.523Z,22.60
2022-08-19T17:09:14.575Z,22.70
2022-08-19T17:12:31.783Z,22.80
2022-08-19T17:15:34.838Z,22.90
2022-08-19T17:18:23.222Z,22.80
2022-08-19T17:21:16.777Z,22.70
2022-08-19T17:24:32.866Z,22.50
2022-08-19T17:31:45.097Z,22.40
2022-08-19T17:34:43.346Z,22.30
2022-08-19T17:41:42.644Z,22.20
2022-08-19T17:44:51.214Z,22.20
2022-08-19T17:47:45.711Z,22.10
2022-08-19T17:51:29.279Z,22.00
2022-08-19T17:54:24.145Z,21.90
2022-08-19T18:00:53.243Z,21.90
2022-08-19T18:03:52.141Z,22.00
2022-08-19T18:07:10.291Z,22.00
2022-08-19T18:13:36.160Z,22.30
2022-08-19T18:16:26.137Z,22.50
2022-08-19T18:19:22.408Z,22.20
2022-08-19T18:22:38.945Z,22.20
2022-08-19T18:26:42.013Z,22.20
2022-08-19T18:30:01.959Z,22.30
2022-08-19T18:32:53.552Z,22.50
2022-08-19T18:35:59.672Z,22.40
2022-08-19T18:39:54.779Z,22.00
2022-08-19T18:43:23.872Z,22.00
2022-08-19T18:46:37.200Z,21.90
2022-08-19T18:50:01.757Z,21.70
2022-08-19T19:06:13.890Z,21.60
2022-08-19T19:09:44.085Z,21.70
2022-08-19T19:12:57.286Z,21.70
2022-08-19T19:19:10.666Z,21.50
2022-08-19T19:22:19.652Z,21.70
2022-08-19T19:25:54.427Z,21.60
2022-08-19T19:32:48.670Z,21.80
2022-08-19T19:36:01.517Z,22.00
2022-08-19T19:38:52.909Z,21.70
2022-08-19T19:42:20.324Z,21.50
2022-08-19T19:50:24.253Z,21.90
2022-08-19T19:59:36.773Z,21.80
2022-08-19T20:07:48.103Z,21.80
2022-08-19T20:14:49.537Z,21.50
2022-08-19T20:18:19.286Z,21.50
2022-08-19T20:21:18.896Z,21.70
2022-08-19T20:24:25.998Z,21.90
2022-08-19T20:27:40.091Z,21.80
2022-08-19T20:30:39.074Z,22.10
2022-08-19T20:37:05.963Z,22.00
2022-08-19T20:39:53.536Z,21.70
2022-08-19T20:42:43.249Z,22.00
2022-08-19T20:45:33.548Z,22.00
2022-08-19T20:48:21.356Z,22.10
2022-08-19T20:51:10.739Z,22.00
2022-08-19T20:53:59.429Z,21.80
2022-08-19T20:56:46.898Z,22.00
2022-08-19T20:59:34.462Z,21.80
2022-08-19T21:02:22.100Z,22.00
2022-08-19T21:05:09.896Z,22.10
2022-08-19T21:07:57.711Z,22.10
2022-08-19T21:10:49.378Z,22.20
2022-08-19T21:13:37.475Z,22.30
2022-08-19T21:16:25.217Z,22.30
2022-08-19T21:19:13.021Z,22.40
2022-08-19T21:22:01.759Z,22.50
2022-08-19T21:24:49.247Z,22.50
2022-08-19T21:27:36.749Z,22.50
2022-08-19T21:30:23.905Z,22.30
2022-08-19T21:33:12.297Z,22.30
2022-08-19T21:36:00.718Z,22.10
2022-08-19T21:38:48.248Z,21.60
2022-08-19T21:50:46.091Z,21.50
2022-08-19T21:53:44.002Z,21.70
2022-08-19T21:56:32.792Z,21.60
2022-08-19T21:59:21.867Z,21.70
2022-08-19T22:02:19.592Z,21.80
2022-08-19T22:05:08.537Z,21.60
2022-08-19T22:07:58.041Z,21.60
2022-08-19T22:10:49.638Z,21.30
2022-08-19T22:13:40.620Z,21.20
2022-08-19T22:16:29.052Z,21.10
2022-08-19T22:19:17.120Z,21.10
2022-08-19T22:22:04.787Z,21.00
2022-08-19T22:24:54.100Z,21.00
2022-08-19T22:27:41.581Z,20.90
2022-08-19T22:30:33.073Z,20.90
2022-08-19T22:33:22.320Z,20.90
2022-08-19T22:36:09.847Z,21.10
2022-08-19T22:38:58.151Z,21.00
2022-08-19T22:41:45.643Z,20.90
2022-08-19T22:44:52.834Z,20.90
2022-08-19T22:48:27.844Z,21.00
2022-08-19T22:51:34.103Z,21.00
2022-08-19T22:55:08.991Z,20.80
2022-08-19T22:58:28.152Z,20.80
2022-08-19T23:05:22.131Z,20.80
2022-08-19T23:08:51.608Z,20.90
2022-08-19T23:18:48.889Z,20.70
2022-08-19T23:22:06.995Z,20.80
2022-08-19T23:25:53.326Z,20.70
2022-08-19T23:29:00.913Z,20.70
2022-08-19T23:46:00.822Z,20.50
2022-08-19T23:49:09.700Z,20.50
2022-08-19T23:51:58.769Z,20.40
2022-08-19T23:54:46.403Z,20.50
2022-08-19T23:57:33.997Z,20.50
